createdAt,value
2019-05-17T00:03:38.498Z,18
2019-05-17T00:13:50.233Z,20
2019-05-17T00:23:49.949Z,21
2019-05-17T00:33:58.207Z,19
2019-05-17T00:44:03.506Z,18
2019-05-17T00:54:09.147Z,20
2019-05-17T01:04:14.513Z,16
2019-05-17T01:14:22.147Z,18
2019-05-17T01:24:28.302Z,18
2019-05-17T01:34:33.849Z,21
2019-05-17T01:44:43.689Z,26
2019-05-17T01:54:48.731Z,30
2019-05-17T02:04:57.198Z,19
2019-05-17T02:15:03.048Z,15
2019-05-17T02:25:08.770Z,14
2019-05-17T02:35:18.736Z,14
2019-05-17T02:45:23.616Z,17
2019-05-17T02:55:28.453Z,16
2019-05-17T03:05:34.428Z,20
2019-05-17T03:15:43.350Z,21
2019-05-17T03:25:45.369Z,20
2019-05-17T03:36:08.663Z,20
2019-05-17T03:46:24.104Z,21
2019-05-17T03:56:33.598Z,21
2019-05-17T04:06:43.929Z,29
2019-05-17T04:16:54.374Z,26
2019-05-17T04:26:52.174Z,21
2019-05-17T04:36:54.253Z,17
2019-05-17T04:47:03.423Z,19
2019-05-17T04:57:13.303Z,23
2019-05-17T05:07:14.550Z,20
2019-05-17T05:17:18.387Z,22
2019-05-17T05:27:22.319Z,22
2019-05-17T05:37:28.133Z,20
2019-05-17T05:47:32.752Z,22
2019-05-17T05:57:38.904Z,23
2019-05-17T06:07:44.993Z,36
2019-05-17T06:17:52.318Z,37
2019-05-17T06:27:57.054Z,22
2019-05-17T06:38:03.406Z,24
2019-05-17T06:48:11.458Z,19
2019-05-17T06:58:14.033Z,22
2019-05-17T07:08:21.438Z,21
2019-05-17T07:18:26.596Z,23
2019-05-17T07:28:37.478Z,15
2019-05-17T07:38:40.994Z,16
2019-05-17T07:48:45.538Z,17
2019-05-17T07:58:49.450Z,17
2019-05-17T08:08:52.176Z,15
2019-05-17T08:19:00.400Z,15
2019-05-17T08:29:11.054Z,13
2019-05-17T08:39:12.062Z,12
2019-05-17T08:49:17.210Z,13
2019-05-17T08:59:22.413Z,10
2019-05-17T09:09:31.292Z,8
2019-05-17T09:19:39.453Z,8
2019-05-17T09:29:40.184Z,16
2019-05-17T10:30:16.457Z,8
2019-05-17T11:40:58.542Z,5
2019-05-17T11:51:04.342Z,7
2019-05-17T12:01:11.190Z,8
2019-05-17T12:11:16.263Z,7
2019-05-17T12:21:24.808Z,5
2019-05-17T12:31:29.162Z,6
2019-05-17T12:41:38.811Z,5
2019-05-17T12:51:46.823Z,6
2019-05-17T13:01:56.122Z,8
2019-05-17T13:12:02.217Z,6
2019-05-17T13:22:05.998Z,4
2019-05-17T13:32:15.066Z,5
2019-05-17T13:42:17.181Z,5
2019-05-17T13:52:24.176Z,4
2019-05-17T14:02:32.040Z,6
2019-05-17T14:12:35.882Z,5
2019-05-17T14:22:42.630Z,5
2019-05-17T14:32:52.826Z,5
2019-05-17T14:42:58.835Z,7
2019-05-17T14:53:07.341Z,6
2019-05-17T15:03:11.106Z,7
2019-05-17T15:13:23.338Z,5
2019-05-17T15:23:27.171Z,19
2019-05-17T15:33:32.173Z,47
2019-05-17T15:43:38.278Z,6
2019-05-17T15:53:43.433Z,6
2019-05-17T16:03:48.751Z,6
2019-05-17T16:13:59.931Z,7
2019-05-17T16:24:01.985Z,5
2019-05-17T16:34:09.809Z,5
2019-05-17T16:44:17.502Z,8
2019-05-17T16:54:24.957Z,5
2019-05-17T17:04:40.648Z,5
2019-05-17T17:14:38.481Z,5
2019-05-17T17:24:42.209Z,5
2019-05-17T17:34:46.334Z,6
2019-05-17T17:44:54.350Z,4
2019-05-17T17:54:58.208Z,4
2019-05-17T18:05:03.688Z,8
2019-05-17T18:15:07.921Z,8
2019-05-17T18:25:12.552Z,9
2019-05-17T18:35:18.570Z,8
2019-05-17T18:45:26.113Z,8
2019-05-17T18:55:31.376Z,8
2019-05-17T19:05:34.393Z,10
2019-05-17T19:15:42.622Z,7
2019-05-17T19:25:46.898Z,10
2019-05-17T19:35:51.488Z,9
2019-05-17T19:45:55.666Z,11
2019-05-17T19:56:03.641Z,15
2019-05-17T20:06:04.993Z,10
2019-05-17T20:16:21.115Z,11
2019-05-17T20:26:15.116Z,9
2019-05-17T20:36:21.097Z,13
2019-05-17T20:46:25.793Z,86
2019-05-17T20:56:33.182Z,56
2019-05-17T21:06:36.523Z,37
2019-05-17T21:16:41.410Z,13
2019-05-17T21:26:46.148Z,7
2019-05-17T21:36:49.997Z,9
2019-05-17T21:47:04.057Z,8
2019-05-17T21:56:59.920Z,7
2019-05-17T22:07:04.770Z,6
2019-05-17T22:17:10.939Z,6
2019-05-17T22:27:16.036Z,6
2019-05-17T22:37:20.532Z,6
2019-05-17T22:47:24.745Z,4
2019-05-17T22:57:29.540Z,6
2019-05-17T23:07:33.520Z,5
2019-05-17T23:17:39.197Z,7
2019-05-17T23:27:45.156Z,8
2019-05-17T23:37:49.355Z,8
2019-05-17T23:47:54.069Z,5
2019-05-17T23:57:57.179Z,5
